sensor_id;sensor_type;location;lat;lon;timestamp;pressure;altitude;pressure_sealevel;temperature;humidity
12219;BME280;6172;42.646;23.344;2022-09-03T00:00:21;94585.88;;;15.43;100.00
12219;BME280;6172;42.646;23.344;2022-09-03T00:02:53;94593.63;;;15.45;100.00
12219;BME280;6172;42.646;23.344;2022-09-03T00:05:30;94591.09;;;15.29;100.00
12219;BME280;6172;42.646;23.344;2022-09-03T00:08:05;94619.06;;;15.58;100.00
12219;BME280;6172;42.646;23.344;2022-09-03T00:10:42;94617.69;;;15.53;100.00
12219;BME280;6172;42.646;23.344;2022-09-03T00:13:16;94613.97;;;15.47;100.00
12219;BME280;6172;42.646;23.344;2022-09-03T00:15:46;94605.53;;;15.42;100.00
12219;BME280;6172;42.646;23.344;2022-09-03T00:18:17;94578.09;;;15.42;100.00
12219;BME280;6172;42.646;23.344;2022-09-03T00:20:52;94591.38;;;15.43;100.00
12219;BME280;6172;42.646;23.344;2022-09-03T00:23:30;94595.81;;;15.28;100.00
12219;BME280;6172;42.646;23.344;2022-09-03T00:26:03;94588.28;;;15.41;100.00
12219;BME280;6172;42.646;23.344;2022-09-03T00:28:44;94612.63;;;15.52;100.00
12219;BME280;6172;42.646;23.344;2022-09-03T00:31:17;94596.16;;;15.52;100.00
12219;BME280;6172;42.646;23.344;2022-09-03T00:33:47;94582.88;;;15.29;100.00
12219;BME280;6172;42.646;23.344;2022-09-03T00:36:19;94594.13;;;15.43;100.00
12219;BME280;6172;42.646;23.344;2022-09-03T00:38:53;94571.03;;;15.19;100.00
12219;BME280;6172;42.646;23.344;2022-09-03T00:41:30;94591.59;;;15.36;100.00
12219;BME280;6172;42.646;23.344;2022-09-03T00:44:13;94603.25;;;15.40;100.00
12219;BME280;6172;42.646;23.344;2022-09-03T00:46:52;94574.03;;;15.12;100.00
12219;BME280;6172;42.646;23.344;2022-09-03T00:49:34;94587.94;;;15.18;100.00
12219;BME280;6172;42.646;23.344;2022-09-03T00:52:13;94592.03;;;15.35;100.00
12219;BME280;6172;42.646;23.344;2022-09-03T00:55:04;94586.47;;;15.04;100.00
12219;BME280;6172;42.646;23.344;2022-09-03T00:57:48;94622.03;;;15.42;100.00
12219;BME280;6172;42.646;23.344;2022-09-03T01:00:21;94601.22;;;15.19;100.00
12219;BME280;6172;42.646;23.344;2022-09-03T01:03:03;94597.59;;;15.22;100.00
12219;BME280;6172;42.646;23.344;2022-09-03T01:05:52;94600.41;;;15.31;100.00
12219;BME280;6172;42.646;23.344;2022-09-03T01:08:38;94590.66;;;14.96;100.00
12219;BME280;6172;42.646;23.344;2022-09-03T01:11:20;94598.75;;;15.34;100.00
12219;BME280;6172;42.646;23.344;2022-09-03T01:14:00;94577.81;;;15.27;100.00
12219;BME280;6172;42.646;23.344;2022-09-03T01:16:38;94602.72;;;15.33;100.00
12219;BME280;6172;42.646;23.344;2022-09-03T01:19:32;94615.59;;;15.23;100.00
12219;BME280;6172;42.646;23.344;2022-09-03T01:22:18;94608.19;;;15.11;100.00
12219;BME280;6172;42.646;23.344;2022-09-03T01:25:11;94615.38;;;15.30;100.00
12219;BME280;6172;42.646;23.344;2022-09-03T01:28:04;94611.06;;;15.29;100.00
12219;BME280;6172;42.646;23.344;2022-09-03T01:30:40;94577.47;;;15.03;100.00
12219;BME280;6172;42.646;23.344;2022-09-03T01:33:17;94614.84;;;15.23;100.00
12219;BME280;6172;42.646;23.344;2022-09-03T01:36:06;94610.34;;;15.16;100.00
12219;BME280;6172;42.646;23.344;2022-09-03T01:38:40;94610.69;;;15.18;100.00
12219;BME280;6172;42.646;23.344;2022-09-03T01:41:15;94588.38;;;15.16;100.00
12219;BME280;6172;42.646;23.344;2022-09-03T01:44:11;94595.41;;;14.95;100.00
12219;BME280;6172;42.646;23.344;2022-09-03T01:46:42;94626.91;;;14.91;100.00
12219;BME280;6172;42.646;23.344;2022-09-03T01:49:18;94614.72;;;14.92;100.00
12219;BME280;6172;42.646;23.344;2022-09-03T01:51:54;94601.34;;;14.69;100.00
12219;BME280;6172;42.646;23.344;2022-09-03T01:54:49;94602.34;;;14.75;100.00
12219;BME280;6172;42.646;23.344;2022-09-03T01:57:49;94607.84;;;14.75;100.00
12219;BME280;6172;42.646;23.344;2022-09-03T02:00:30;94579.44;;;14.56;100.00
12219;BME280;6172;42.646;23.344;2022-09-03T02:03:04;94587.56;;;14.72;100.00
12219;BME280;6172;42.646;23.344;2022-09-03T02:05:38;94577.44;;;14.69;100.00
12219;BME280;6172;42.646;23.344;2022-09-03T02:08:09;94599.31;;;14.94;100.00
12219;BME280;6172;42.646;23.344;2022-09-03T02:10:39;94611.09;;;14.95;100.00
12219;BME280;6172;42.646;23.344;2022-09-03T02:13:10;94616.41;;;15.11;100.00
12219;BME280;6172;42.646;23.344;2022-09-03T02:15:43;94615.44;;;15.05;100.00
12219;BME280;6172;42.646;23.344;2022-09-03T02:18:16;94607.66;;;15.03;100.00
12219;BME280;6172;42.646;23.344;2022-09-03T02:20:46;94622.09;;;15.17;100.00
12219;BME280;6172;42.646;23.344;2022-09-03T02:23:16;94631.81;;;15.09;100.00
12219;BME280;6172;42.646;23.344;2022-09-03T02:25:47;94626.41;;;15.05;100.00
12219;BME280;6172;42.646;23.344;2022-09-03T02:28:16;94612.50;;;14.99;100.00
12219;BME280;6172;42.646;23.344;2022-09-03T02:30:45;94629.59;;;15.03;100.00
12219;BME280;6172;42.646;23.344;2022-09-03T02:33:13;94632.25;;;15.07;100.00
12219;BME280;6172;42.646;23.344;2022-09-03T02:35:42;94629.06;;;14.96;100.00
12219;BME280;6172;42.646;23.344;2022-09-03T02:38:11;94616.59;;;14.82;100.00
12219;BME280;6172;42.646;23.344;2022-09-03T02:40:38;94640.38;;;14.98;100.00
12219;BME280;6172;42.646;23.344;2022-09-03T02:43:12;94637.63;;;14.98;100.00
12219;BME280;6172;42.646;23.344;2022-09-03T02:45:44;94632.78;;;15.02;100.00
12219;BME280;6172;42.646;23.344;2022-09-03T02:48:17;94644.50;;;15.15;100.00
12219;BME280;6172;42.646;23.344;2022-09-03T02:50:51;94611.84;;;14.95;100.00
12219;BME280;6172;42.646;23.344;2022-09-03T02:53:21;94642.09;;;15.17;100.00
12219;BME280;6172;42.646;23.344;2022-09-03T02:55:57;94625.44;;;14.99;100.00
12219;BME280;6172;42.646;23.344;2022-09-03T02:58:25;94629.50;;;15.07;100.00
12219;BME280;6172;42.646;23.344;2022-09-03T03:00:56;94647.69;;;15.14;100.00
12219;BME280;6172;42.646;23.344;2022-09-03T03:03:27;94645.72;;;15.14;100.00
12219;BME280;6172;42.646;23.344;2022-09-03T03:05:55;94643.28;;;15.16;100.00
12219;BME280;6172;42.646;23.344;2022-09-03T03:08:40;94612.09;;;14.76;100.00
12219;BME280;6172;42.646;23.344;2022-09-03T03:11:16;94608.88;;;14.90;100.00
12219;BME280;6172;42.646;23.344;2022-09-03T03:13:50;94641.16;;;14.86;100.00
12219;BME280;6172;42.646;23.344;2022-09-03T03:16:18;94611.25;;;14.54;100.00
12219;BME280;6172;42.646;23.344;2022-09-03T03:18:48;94643.94;;;14.73;100.00
12219;BME280;6172;42.646;23.344;2022-09-03T03:21:20;94623.41;;;14.78;100.00
12219;BME280;6172;42.646;23.344;2022-09-03T03:23:48;94647.88;;;14.85;100.00
12219;BME280;6172;42.646;23.344;2022-09-03T03:26:23;94613.63;;;14.64;100.00
12219;BME280;6172;42.646;23.344;2022-09-03T03:28:56;94619.34;;;14.57;100.00
12219;BME280;6172;42.646;23.344;2022-09-03T03:31:25;94640.41;;;14.73;100.00
12219;BME280;6172;42.646;23.344;2022-09-03T03:34:12;94641.50;;;14.63;100.00
12219;BME280;6172;42.646;23.344;2022-09-03T03:36:40;94633.63;;;14.77;100.00
12219;BME280;6172;42.646;23.344;2022-09-03T03:39:22;94629.97;;;14.68;100.00
12219;BME280;6172;42.646;23.344;2022-09-03T03:41:56;94629.09;;;14.71;100.00
12219;BME280;6172;42.646;23.344;2022-09-03T03:44:27;94632.53;;;14.75;100.00
12219;BME280;6172;42.646;23.344;2022-09-03T03:46:54;94647.09;;;14.72;100.00
12219;BME280;6172;42.646;23.344;2022-09-03T03:49:26;94648.41;;;14.80;100.00
12219;BME280;6172;42.646;23.344;2022-09-03T03:51:54;94615.38;;;14.71;100.00
12219;BME280;6172;42.646;23.344;2022-09-03T03:54:25;94639.53;;;14.88;100.00
12219;BME280;6172;42.646;23.344;2022-09-03T03:56:54;94636.94;;;14.72;100.00
12219;BME280;6172;42.646;23.344;2022-09-03T03:59:22;94630.53;;;14.50;100.00
12219;BME280;6172;42.646;23.344;2022-09-03T04:01:49;94644.16;;;14.54;100.00
12219;BME280;6172;42.646;23.344;2022-09-03T04:04:17;94662.25;;;14.64;100.00
12219;BME280;6172;42.646;23.344;2022-09-03T04:06:46;94644.25;;;14.63;100.00
12219;BME280;6172;42.646;23.344;2022-09-03T04:09:17;94652.56;;;14.72;100.00
12219;BME280;6172;42.646;23.344;2022-09-03T04:11:46;94633.50;;;14.81;100.00
12219;BME280;6172;42.646;23.344;2022-09-03T04:14:15;94646.34;;;14.84;100.00
12219;BME280;6172;42.646;23.344;2022-09-03T04:16:43;94638.75;;;14.63;100.00
12219;BME280;6172;42.646;23.344;2022-09-03T04:19:11;94647.31;;;14.65;100.00
12219;BME280;6172;42.646;23.344;2022-09-03T04:21:38;94647.31;;;14.65;100.00
12219;BME280;6172;42.646;23.344;2022-09-03T04:24:07;94646.13;;;14.53;100.00
12219;BME280;6172;42.646;23.344;2022-09-03T04:26:35;94660.69;;;14.63;100.00
12219;BME280;6172;42.646;23.344;2022-09-03T04:29:04;94663.00;;;14.64;100.00
12219;BME280;6172;42.646;23.344;2022-09-03T04:31:32;94644.81;;;14.58;100.00
12219;BME280;6172;42.646;23.344;2022-09-03T04:33:59;94648.22;;;14.74;100.00
12219;BME280;6172;42.646;23.344;2022-09-03T04:36:28;94658.50;;;14.83;100.00
12219;BME280;6172;42.646;23.344;2022-09-03T04:38:58;94658.16;;;14.68;100.00
12219;BME280;6172;42.646;23.344;2022-09-03T04:41:28;94669.47;;;14.70;100.00
12219;BME280;6172;42.646;23.344;2022-09-03T04:43:57;94688.03;;;14.79;100.00
12219;BME280;6172;42.646;23.344;2022-09-03T04:46:26;94682.88;;;14.93;100.00
12219;BME280;6172;42.646;23.344;2022-09-03T04:48:57;94685.06;;;14.86;100.00
12219;BME280;6172;42.646;23.344;2022-09-03T04:51:25;94696.91;;;14.83;100.00
12219;BME280;6172;42.646;23.344;2022-09-03T04:53:58;94674.31;;;14.79;100.00
12219;BME280;6172;42.646;23.344;2022-09-03T04:56:30;94680.38;;;14.86;100.00
12219;BME280;6172;42.646;23.344;2022-09-03T04:58:59;94701.50;;;15.11;100.00
12219;BME280;6172;42.646;23.344;2022-09-03T05:01:28;94693.19;;;15.02;100.00
12219;BME280;6172;42.646;23.344;2022-09-03T05:03:56;94686.69;;;15.09;100.00
12219;BME280;6172;42.646;23.344;2022-09-03T05:06:27;94669.13;;;15.06;100.00
12219;BME280;6172;42.646;23.344;2022-09-03T05:08:55;94709.84;;;15.20;100.00
12219;BME280;6172;42.646;23.344;2022-09-03T05:11:23;94707.50;;;15.31;100.00
12219;BME280;6172;42.646;23.344;2022-09-03T05:13:55;94684.53;;;15.38;100.00
12219;BME280;6172;42.646;23.344;2022-09-03T05:16:26;94688.59;;;15.33;100.00
12219;BME280;6172;42.646;23.344;2022-09-03T05:18:56;94693.38;;;15.20;100.00
12219;BME280;6172;42.646;23.344;2022-09-03T05:21:26;94696.53;;;15.31;100.00
12219;BME280;6172;42.646;23.344;2022-09-03T05:23:53;94692.03;;;15.25;100.00
12219;BME280;6172;42.646;23.344;2022-09-03T05:26:23;94684.16;;;15.14;100.00
12219;BME280;6172;42.646;23.344;2022-09-03T05:28:58;94672.28;;;15.17;100.00
12219;BME280;6172;42.646;23.344;2022-09-03T05:31:27;94691.44;;;15.42;100.00
12219;BME280;6172;42.646;23.344;2022-09-03T05:33:58;94680.59;;;15.26;100.00
12219;BME280;6172;42.646;23.344;2022-09-03T05:36:34;94710.69;;;15.30;100.00
12219;BME280;6172;42.646;23.344;2022-09-03T05:39:02;94697.75;;;15.30;100.00
12219;BME280;6172;42.646;23.344;2022-09-03T05:41:30;94666.56;;;15.24;100.00
12219;BME280;6172;42.646;23.344;2022-09-03T05:44:14;94704.41;;;15.42;100.00
12219;BME280;6172;42.646;23.344;2022-09-03T05:46:43;94701.09;;;15.47;100.00
12219;BME280;6172;42.646;23.344;2022-09-03T05:49:11;94700.31;;;15.46;100.00
12219;BME280;6172;42.646;23.344;2022-09-03T05:51:42;94686.56;;;15.46;100.00
12219;BME280;6172;42.646;23.344;2022-09-03T05:54:15;94685.38;;;15.47;100.00
12219;BME280;6172;42.646;23.344;2022-09-03T05:56:42;94709.41;;;15.56;100.00
12219;BME280;6172;42.646;23.344;2022-09-03T05:59:09;94705.44;;;15.57;100.00
12219;BME280;6172;42.646;23.344;2022-09-03T06:01:43;94715.09;;;15.74;100.00
12219;BME280;6172;42.646;23.344;2022-09-03T06:04:12;94701.13;;;15.68;100.00
12219;BME280;6172;42.646;23.344;2022-09-03T06:06:41;94694.75;;;15.71;100.00
12219;BME280;6172;42.646;23.344;2022-09-03T06:09:10;94715.28;;;15.79;100.00
12219;BME280;6172;42.646;23.344;2022-09-03T06:11:40;94708.31;;;15.87;100.00
12219;BME280;6172;42.646;23.344;2022-09-03T06:14:11;94679.81;;;15.72;100.00
12219;BME280;6172;42.646;23.344;2022-09-03T06:16:45;94683.16;;;15.55;100.00
12219;BME280;6172;42.646;23.344;2022-09-03T06:19:14;94697.84;;;15.95;100.00
12219;BME280;6172;42.646;23.344;2022-09-03T06:21:44;94703.22;;;15.98;100.00
12219;BME280;6172;42.646;23.344;2022-09-03T06:24:18;94682.69;;;15.90;100.00
12219;BME280;6172;42.646;23.344;2022-09-03T06:26:48;94706.78;;;16.29;100.00
12219;BME280;6172;42.646;23.344;2022-09-03T06:29:16;94687.94;;;16.19;100.00
12219;BME280;6172;42.646;23.344;2022-09-03T06:31:46;94716.75;;;16.36;100.00
12219;BME280;6172;42.646;23.344;2022-09-03T06:34:15;94704.66;;;16.33;100.00
12219;BME280;6172;42.646;23.344;2022-09-03T06:36:44;94714.47;;;16.65;100.00
12219;BME280;6172;42.646;23.344;2022-09-03T06:39:11;94706.75;;;16.81;100.00
12219;BME280;6172;42.646;23.344;2022-09-03T06:41:38;94694.59;;;17.00;100.00
12219;BME280;6172;42.646;23.344;2022-09-03T06:44:07;94688.50;;;17.05;100.00
12219;BME280;6172;42.646;23.344;2022-09-03T06:46:37;94709.78;;;17.14;100.00
12219;BME280;6172;42.646;23.344;2022-09-03T06:49:13;94693.97;;;16.96;100.00
12219;BME280;6172;42.646;23.344;2022-09-03T06:51:40;94705.22;;;17.29;100.00
12219;BME280;6172;42.646;23.344;2022-09-03T06:54:10;94677.56;;;16.93;100.00
12219;BME280;6172;42.646;23.344;2022-09-03T06:56:47;94723.13;;;17.33;100.00
12219;BME280;6172;42.646;23.344;2022-09-03T06:59:14;94720.69;;;17.36;100.00
12219;BME280;6172;42.646;23.344;2022-09-03T07:01:42;94699.22;;;17.21;100.00
12219;BME280;6172;42.646;23.344;2022-09-03T07:04:12;94710.03;;;16.98;100.00
12219;BME280;6172;42.646;23.344;2022-09-03T07:06:40;94683.25;;;16.98;100.00
12219;BME280;6172;42.646;23.344;2022-09-03T07:09:10;94727.88;;;17.42;100.00
12219;BME280;6172;42.646;23.344;2022-09-03T07:11:39;94717.03;;;17.48;100.00
12219;BME280;6172;42.646;23.344;2022-09-03T07:14:11;94722.59;;;17.75;100.00
12219;BME280;6172;42.646;23.344;2022-09-03T07:16:39;94722.91;;;17.77;100.00
12219;BME280;6172;42.646;23.344;2022-09-03T07:19:07;94707.09;;;18.22;100.00
12219;BME280;6172;42.646;23.344;2022-09-03T07:21:39;94706.16;;;18.34;100.00
12219;BME280;6172;42.646;23.344;2022-09-03T07:24:07;94709.97;;;19.38;100.00
12219;BME280;6172;42.646;23.344;2022-09-03T07:26:37;94711.59;;;20.73;100.00
12219;BME280;6172;42.646;23.344;2022-09-03T07:29:04;94709.59;;;21.92;100.00
12219;BME280;6172;42.646;23.344;2022-09-03T07:31:34;94705.13;;;22.97;97.83
12219;BME280;6172;42.646;23.344;2022-09-03T07:34:03;94722.16;;;22.53;96.24
12219;BME280;6172;42.646;23.344;2022-09-03T07:36:35;94717.03;;;21.46;100.00
12219;BME280;6172;42.646;23.344;2022-09-03T07:39:08;94727.66;;;21.33;100.00
12219;BME280;6172;42.646;23.344;2022-09-03T07:41:35;94729.38;;;21.80;100.00
12219;BME280;6172;42.646;23.344;2022-09-03T07:44:03;94724.66;;;22.06;96.81
12219;BME280;6172;42.646;23.344;2022-09-03T07:46:33;94718.81;;;22.24;96.40
12219;BME280;6172;42.646;23.344;2022-09-03T07:49:01;94729.13;;;21.83;97.94
12219;BME280;6172;42.646;23.344;2022-09-03T07:51:29;94710.19;;;20.63;100.00
12219;BME280;6172;42.646;23.344;2022-09-03T07:53:59;94729.06;;;21.08;100.00
12219;BME280;6172;42.646;23.344;2022-09-03T07:56:31;94719.56;;;21.29;100.00
12219;BME280;6172;42.646;23.344;2022-09-03T07:59:00;94736.25;;;21.00;100.00
12219;BME280;6172;42.646;23.344;2022-09-03T08:01:28;94736.31;;;20.77;100.00
12219;BME280;6172;42.646;23.344;2022-09-03T08:03:57;94733.34;;;20.37;100.00
12219;BME280;6172;42.646;23.344;2022-09-03T08:06:25;94734.19;;;20.28;100.00
12219;BME280;6172;42.646;23.344;2022-09-03T08:08:57;94746.16;;;20.34;100.00
12219;BME280;6172;42.646;23.344;2022-09-03T08:11:26;94747.53;;;20.68;100.00
12219;BME280;6172;42.646;23.344;2022-09-03T08:13:56;94742.81;;;20.74;100.00
12219;BME280;6172;42.646;23.344;2022-09-03T08:16:26;94739.06;;;20.48;100.00
12219;BME280;6172;42.646;23.344;2022-09-03T08:18:54;94743.97;;;20.67;100.00
12219;BME280;6172;42.646;23.344;2022-09-03T08:21:21;94749.06;;;20.98;100.00
12219;BME280;6172;42.646;23.344;2022-09-03T08:23:50;94750.28;;;21.11;100.00
12219;BME280;6172;42.646;23.344;2022-09-03T08:26:18;94738.84;;;21.93;97.98
12219;BME280;6172;42.646;23.344;2022-09-03T08:28:45;94738.44;;;21.45;100.00
12219;BME280;6172;42.646;23.344;2022-09-03T08:31:16;94734.56;;;21.72;100.00
12219;BME280;6172;42.646;23.344;2022-09-03T08:33:45;94735.38;;;21.58;100.00
12219;BME280;6172;42.646;23.344;2022-09-03T08:36:13;94714.53;;;21.48;100.00
12219;BME280;6172;42.646;23.344;2022-09-03T08:38:42;94726.53;;;21.74;100.00
12219;BME280;6172;42.646;23.344;2022-09-03T08:41:13;94742.03;;;21.66;100.00
12219;BME280;6172;42.646;23.344;2022-09-03T08:46:47;94725.44;;;22.12;100.00
12219;BME280;6172;42.646;23.344;2022-09-03T08:49:21;94727.22;;;21.89;100.00
12219;BME280;6172;42.646;23.344;2022-09-03T08:51:53;94726.56;;;21.25;100.00
12219;BME280;6172;42.646;23.344;2022-09-03T08:54:24;94727.47;;;21.36;100.00
12219;BME280;6172;42.646;23.344;2022-09-03T08:56:53;94726.59;;;20.96;100.00
12219;BME280;6172;42.646;23.344;2022-09-03T08:59:21;94726.31;;;20.94;100.00
12219;BME280;6172;42.646;23.344;2022-09-03T09:01:55;94717.53;;;20.66;100.00
12219;BME280;6172;42.646;23.344;2022-09-03T09:04:38;94717.69;;;20.48;100.00
12219;BME280;6172;42.646;23.344;2022-09-03T09:07:17;94726.22;;;20.88;100.00
12219;BME280;6172;42.646;23.344;2022-09-03T09:09:54;94742.06;;;20.73;100.00
12219;BME280;6172;42.646;23.344;2022-09-03T09:12:32;94709.00;;;20.26;100.00
12219;BME280;6172;42.646;23.344;2022-09-03T09:15:09;94738.88;;;20.37;100.00
12219;BME280;6172;42.646;23.344;2022-09-03T09:18:00;94736.41;;;20.39;100.00
12219;BME280;6172;42.646;23.344;2022-09-03T09:20:35;94736.91;;;20.37;100.00
12219;BME280;6172;42.646;23.344;2022-09-03T09:23:07;94743.72;;;19.89;100.00
12219;BME280;6172;42.646;23.344;2022-09-03T09:25:45;94732.75;;;19.95;100.00
12219;BME280;6172;42.646;23.344;2022-09-03T09:28:17;94728.53;;;20.08;100.00
12219;BME280;6172;42.646;23.344;2022-09-03T09:30:46;94733.63;;;20.24;100.00
12219;BME280;6172;42.646;23.344;2022-09-03T09:33:15;94746.91;;;20.35;100.00
12219;BME280;6172;42.646;23.344;2022-09-03T09:35:43;94725.28;;;19.86;100.00
12219;BME280;6172;42.646;23.344;2022-09-03T09:38:11;94751.22;;;20.50;100.00
12219;BME280;6172;42.646;23.344;2022-09-03T09:40:40;94740.22;;;20.41;100.00
12219;BME280;6172;42.646;23.344;2022-09-03T09:43:11;94741.72;;;20.28;100.00
12219;BME280;6172;42.646;23.344;2022-09-03T09:45:42;94738.41;;;20.38;100.00
12219;BME280;6172;42.646;23.344;2022-09-03T09:48:28;94719.72;;;20.33;100.00
12219;BME280;6172;42.646;23.344;2022-09-03T09:51:10;94746.47;;;20.13;100.00
12219;BME280;6172;42.646;23.344;2022-09-03T09:53:37;94745.00;;;20.55;100.00
12219;BME280;6172;42.646;23.344;2022-09-03T09:56:05;94748.66;;;20.76;100.00
12219;BME280;6172;42.646;23.344;2022-09-03T09:58:33;94741.13;;;20.62;100.00
12219;BME280;6172;42.646;23.344;2022-09-03T10:01:03;94754.13;;;20.99;100.00
12219;BME280;6172;42.646;23.344;2022-09-03T10:03:48;94753.41;;;21.33;100.00
12219;BME280;6172;42.646;23.344;2022-09-03T10:06:22;94747.81;;;21.62;100.00
12219;BME280;6172;42.646;23.344;2022-09-03T10:09:10;94748.56;;;22.23;98.41
12219;BME280;6172;42.646;23.344;2022-09-03T10:11:42;94742.19;;;22.17;100.00
12219;BME280;6172;42.646;23.344;2022-09-03T10:14:16;94733.75;;;22.52;94.94
12219;BME280;6172;42.646;23.344;2022-09-03T10:16:47;94742.34;;;22.54;96.39
12219;BME280;6172;42.646;23.344;2022-09-03T10:19:21;94733.66;;;22.01;100.00
12219;BME280;6172;42.646;23.344;2022-09-03T10:21:54;94735.66;;;22.66;97.45
12219;BME280;6172;42.646;23.344;2022-09-03T10:24:35;94704.34;;;22.65;94.97
12219;BME280;6172;42.646;23.344;2022-09-03T10:27:06;94719.69;;;22.86;96.12
12219;BME280;6172;42.646;23.344;2022-09-03T10:29:34;94731.50;;;23.07;92.94
12219;BME280;6172;42.646;23.344;2022-09-03T10:32:12;94721.22;;;23.55;85.45
12219;BME280;6172;42.646;23.344;2022-09-03T10:34:51;94713.69;;;22.68;89.90
12219;BME280;6172;42.646;23.344;2022-09-03T10:37:31;94732.06;;;22.14;100.00
12219;BME280;6172;42.646;23.344;2022-09-03T10:40:19;94724.97;;;22.33;97.04
12219;BME280;6172;42.646;23.344;2022-09-03T10:43:15;94726.22;;;21.72;100.00
12219;BME280;6172;42.646;23.344;2022-09-03T10:45:55;94726.03;;;21.96;100.00
12219;BME280;6172;42.646;23.344;2022-09-03T10:51:34;94734.94;;;22.45;98.00
12219;BME280;6172;42.646;23.344;2022-09-03T10:54:13;94729.16;;;23.00;96.09
12219;BME280;6172;42.646;23.344;2022-09-03T10:56:52;94720.41;;;23.43;91.15
12219;BME280;6172;42.646;23.344;2022-09-03T10:59:40;94703.59;;;23.27;83.98
12219;BME280;6172;42.646;23.344;2022-09-03T11:02:29;94720.25;;;24.06;83.67
12219;BME280;6172;42.646;23.344;2022-09-03T11:05:01;94723.19;;;24.44;76.47
12219;BME280;6172;42.646;23.344;2022-09-03T11:07:35;94707.28;;;24.72;74.96
12219;BME280;6172;42.646;23.344;2022-09-03T11:10:12;94719.78;;;24.13;76.36
12219;BME280;6172;42.646;23.344;2022-09-03T11:12:45;94714.56;;;23.78;80.26
12219;BME280;6172;42.646;23.344;2022-09-03T11:15:19;94723.50;;;23.51;81.71
12219;BME280;6172;42.646;23.344;2022-09-03T11:17:53;94726.56;;;24.06;76.12
12219;BME280;6172;42.646;23.344;2022-09-03T11:20:23;94728.03;;;24.60;74.63
12219;BME280;6172;42.646;23.344;2022-09-03T11:22:54;94721.50;;;24.96;70.90
12219;BME280;6172;42.646;23.344;2022-09-03T11:25:31;94729.56;;;24.67;72.65
12219;BME280;6172;42.646;23.344;2022-09-03T11:28:11;94721.00;;;25.25;68.87
12219;BME280;6172;42.646;23.344;2022-09-03T11:30:51;94705.28;;;25.22;69.06
12219;BME280;6172;42.646;23.344;2022-09-03T11:33:23;94707.28;;;25.38;67.68
12219;BME280;6172;42.646;23.344;2022-09-03T11:35:57;94699.22;;;25.13;67.53
12219;BME280;6172;42.646;23.344;2022-09-03T11:38:28;94715.91;;;24.74;70.86
12219;BME280;6172;42.646;23.344;2022-09-03T11:41:03;94715.13;;;24.68;72.07
12219;BME280;6172;42.646;23.344;2022-09-03T11:43:31;94696.84;;;24.51;70.18
12219;BME280;6172;42.646;23.344;2022-09-03T11:46:04;94715.13;;;24.57;73.58
12219;BME280;6172;42.646;23.344;2022-09-03T11:48:38;94698.94;;;24.89;70.32
12219;BME280;6172;42.646;23.344;2022-09-03T11:51:29;94700.69;;;24.86;69.38
12219;BME280;6172;42.646;23.344;2022-09-03T11:53:59;94714.19;;;24.99;70.02
12219;BME280;6172;42.646;23.344;2022-09-03T11:56:27;94716.97;;;25.10;68.75
12219;BME280;6172;42.646;23.344;2022-09-03T11:59:15;94716.69;;;24.97;70.10
12219;BME280;6172;42.646;23.344;2022-09-03T12:01:48;94690.06;;;24.90;68.88
12219;BME280;6172;42.646;23.344;2022-09-03T12:04:23;94699.41;;;24.76;69.47
12219;BME280;6172;42.646;23.344;2022-09-03T12:07:23;94686.50;;;24.90;68.94
12219;BME280;6172;42.646;23.344;2022-09-03T12:10:30;94687.03;;;25.21;68.20
12219;BME280;6172;42.646;23.344;2022-09-03T12:13:13;94707.56;;;25.29;65.64
12219;BME280;6172;42.646;23.344;2022-09-03T12:18:34;94699.72;;;25.11;67.86
12219;BME280;6172;42.646;23.344;2022-09-03T12:21:04;94688.53;;;25.44;65.51
12219;BME280;6172;42.646;23.344;2022-09-03T12:23:34;94690.56;;;25.55;62.36
12219;BME280;6172;42.646;23.344;2022-09-03T12:26:10;94683.47;;;25.32;64.35
12219;BME280;6172;42.646;23.344;2022-09-03T12:28:41;94667.75;;;25.12;60.24
12219;BME280;6172;42.646;23.344;2022-09-03T12:31:13;94686.78;;;25.08;61.31
12219;BME280;6172;42.646;23.344;2022-09-03T12:33:51;94693.09;;;25.36;61.92
12219;BME280;6172;42.646;23.344;2022-09-03T12:36:21;94695.16;;;25.08;61.78
12219;BME280;6172;42.646;23.344;2022-09-03T12:38:49;94703.22;;;24.73;63.09
12219;BME280;6172;42.646;23.344;2022-09-03T12:41:32;94694.88;;;25.01;63.30
12219;BME280;6172;42.646;23.344;2022-09-03T12:44:00;94692.88;;;25.07;64.32
12219;BME280;6172;42.646;23.344;2022-09-03T12:46:29;94690.56;;;25.27;61.51
12219;BME280;6172;42.646;23.344;2022-09-03T12:48:59;94691.06;;;25.42;59.69
12219;BME280;6172;42.646;23.344;2022-09-03T12:51:33;94676.88;;;24.96;61.54
12219;BME280;6172;42.646;23.344;2022-09-03T12:54:02;94686.78;;;25.25;61.49
12219;BME280;6172;42.646;23.344;2022-09-03T12:56:33;94678.94;;;25.07;63.24
12219;BME280;6172;42.646;23.344;2022-09-03T12:59:04;94678.66;;;25.21;62.91
12219;BME280;6172;42.646;23.344;2022-09-03T13:01:37;94676.38;;;25.25;63.58
12219;BME280;6172;42.646;23.344;2022-09-03T13:04:08;94670.81;;;24.92;61.39
12219;BME280;6172;42.646;23.344;2022-09-03T13:06:46;94680.72;;;25.04;61.13
12219;BME280;6172;42.646;23.344;2022-09-03T13:09:19;94672.28;;;24.49;64.33
12219;BME280;6172;42.646;23.344;2022-09-03T13:11:48;94671.28;;;24.85;64.38
12219;BME280;6172;42.646;23.344;2022-09-03T13:14:17;94670.78;;;24.87;64.65
12219;BME280;6172;42.646;23.344;2022-09-03T13:17:16;94668.78;;;25.20;63.56
12219;BME280;6172;42.646;23.344;2022-09-03T13:19:56;94661.41;;;25.23;63.81
12219;BME280;6172;42.646;23.344;2022-09-03T13:22:40;94661.91;;;24.88;64.80
12219;BME280;6172;42.646;23.344;2022-09-03T13:25:15;94663.94;;;25.32;62.98
12219;BME280;6172;42.646;23.344;2022-09-03T13:27:58;94649.00;;;24.91;63.79
12219;BME280;6172;42.646;23.344;2022-09-03T13:30:31;94640.13;;;24.48;65.07
12219;BME280;6172;42.646;23.344;2022-09-03T13:33:08;94654.31;;;24.83;65.16